Eugene, OR (97401)

8:27 AM PST on December 03, 2016 (GMT -0800)
Cal Young | | Change Station

Elev 423 ft 44.08 °N, 123.08 °W | Updated 6 seconds ago

Mostly Cloudy
Mostly Cloudy
42.0 °F
Feels Like 42 °F
N
0.0
Wind Variable Wind from SE
Gusts 0.0 mph

Today
High -- | Low -- °F
--% Chance of Precip.
Yesterday
High -- | Low -- °F
Precip. -- in
Pressure 30.43 in
Visibility 9.0 miles
Clouds Few 2800 ft
Few 4000 ft
Mostly Cloudy 5500 ft
Windchill 42 °F
Dew Point 42 °F
Humidity 98%
Rainfall 0.00 in
Snow Depth Not available.
7:30 AM 4:34 PM
Waxing Crescent, 15% visible
METAR KEUG 031554Z 21004KT 9SM FEW028 FEW040 BKN055 05/04 A3042 RMK AO2 SLP303 T00500044
Pressure 30.43 in
Visibility 9.0 miles
Clouds Few 2800 ft
Few 4000 ft
Mostly Cloudy 5500 ft
Windchill 42 °F
Dew Point 42 °F
Humidity 98%
Rainfall 0.00 in
Snow Depth Not available.
7:30 AM 4:34 PM
Waxing Crescent, 15% visible
METAR KEUG 031554Z 21004KT 9SM FEW028 FEW040 BKN055 05/04 A3042 RMK AO2 SLP303 T00500044

10-Day Weather Forecast

Almanac

Astronomy

Dec. 03, 2016 Rise Set
Actual Time
Civil Twilight
Nautical Twilight
Astronomical Twilight
Moon
Length of Visible Light
Length of Day
Tomorrow will be .
, % of the Moon is Illuminated

Today's Extremes

State Highs State Lows

Community

WunderPhotos

Upload Photos

1,955,439 photos uploaded!

WunderBlog® & News

Nearby

Air Quality

  Air Quality AQ Index Pollutant
Not available.

Snow Depth

Station Depth Elevation

Earthquake Activity

City Distance Mag. Time & Date
Minimum magnitude displayed is 2.5.

Coastal Water Temperatures

Place Temperature

Stations

Nearby Weather Stations

Station Location Temp. Windchill Dew Point Humidity Wind Precip. Elev Updated Type
                   

Watches & Warnings

There are currently no watches in effect.